createdAt,value
2019-01-09T00:01:03.868Z,2.80
2019-01-09T00:03:32.761Z,2.81
2019-01-09T00:06:01.457Z,2.75
2019-01-09T00:08:30.520Z,2.77
2019-01-09T00:10:59.542Z,2.81
2019-01-09T00:13:28.153Z,2.84
2019-01-09T00:15:57.012Z,2.82
2019-01-09T00:18:26.020Z,2.86
2019-01-09T00:20:54.752Z,2.85
2019-01-09T00:23:24.013Z,2.89
2019-01-09T00:25:52.898Z,2.90
2019-01-09T00:28:21.565Z,2.88
2019-01-09T00:30:50.220Z,2.90
2019-01-09T00:33:19.785Z,2.89
2019-01-09T00:35:48.544Z,2.91
2019-01-09T00:38:17.564Z,2.94
2019-01-09T00:40:46.760Z,2.92
2019-01-09T00:43:15.962Z,2.92
2019-01-09T00:45:44.950Z,2.94
2019-01-09T00:48:14.352Z,2.92
2019-01-09T00:50:43.245Z,2.97
2019-01-09T00:53:12.272Z,2.96
2019-01-09T00:55:40.984Z,2.95
2019-01-09T00:58:09.674Z,3.00
2019-01-09T01:00:38.315Z,2.96
2019-01-09T01:03:56.853Z,2.97
2019-01-09T01:07:08.764Z,2.99
2019-01-09T01:10:26.495Z,3.00
2019-01-09T01:13:35.001Z,3.01
2019-01-09T01:16:56.963Z,3.02
2019-01-09T01:20:13.733Z,3.01
2019-01-09T01:23:20.913Z,3.05
2019-01-09T01:26:26.859Z,3.10
2019-01-09T01:29:52.109Z,3.04
2019-01-09T01:33:00.542Z,3.05
2019-01-09T01:36:06.539Z,3.06
2019-01-09T01:39:18.604Z,3.05
2019-01-09T01:42:24.771Z,3.07
2019-01-09T01:45:13.615Z,3.08
2019-01-09T01:48:06.484Z,3.10
2019-01-09T01:51:03.494Z,3.07
2019-01-09T01:53:57.425Z,3.08
2019-01-09T01:56:51.084Z,3.08
2019-01-09T01:59:27.864Z,3.07
2019-01-09T02:02:40.186Z,3.07
2019-01-09T02:05:51.499Z,3.07
2019-01-09T02:08:54.851Z,3.08
2019-01-09T02:11:48.523Z,3.08
2019-01-09T02:14:43.171Z,3.08
2019-01-09T02:17:53.133Z,3.06
2019-01-09T02:20:55.453Z,3.03
2019-01-09T02:23:53.221Z,3.04
2019-01-09T02:26:56.826Z,3.04
2019-01-09T02:29:52.344Z,2.98
2019-01-09T02:32:33.931Z,2.97
2019-01-09T02:35:02.821Z,2.94
2019-01-09T02:37:31.811Z,2.96
2019-01-09T02:40:00.422Z,2.97
2019-01-09T02:42:29.614Z,2.98
2019-01-09T02:44:58.599Z,2.96
2019-01-09T02:47:27.199Z,2.97
2019-01-09T02:49:56.180Z,2.98
2019-01-09T02:52:24.813Z,2.95
2019-01-09T02:54:53.419Z,2.96
2019-01-09T02:57:24.535Z,2.98
2019-01-09T02:59:53.073Z,2.97
2019-01-09T03:02:21.697Z,2.94
2019-01-09T03:04:50.643Z,2.99
2019-01-09T03:07:19.244Z,2.98
2019-01-09T03:09:47.840Z,2.95
2019-01-09T03:12:16.806Z,2.96
2019-01-09T03:14:45.765Z,3.00
2019-01-09T03:17:14.383Z,3.02
2019-01-09T03:19:43.375Z,3.01
2019-01-09T03:22:12.581Z,3.01
2019-01-09T03:24:41.184Z,3.01
2019-01-09T03:27:09.829Z,2.98
2019-01-09T03:29:38.533Z,2.99
2019-01-09T03:32:07.430Z,3.00
2019-01-09T03:34:36.522Z,3.03
2019-01-09T03:37:05.405Z,3.01
2019-01-09T03:39:34.076Z,3.02
2019-01-09T03:42:02.723Z,3.04
2019-01-09T03:44:31.330Z,3.02
2019-01-09T03:47:00.260Z,3.02
2019-01-09T03:49:29.171Z,3.04
2019-01-09T03:51:58.148Z,3.03
2019-01-09T03:54:27.036Z,3.06
2019-01-09T03:56:55.671Z,3.03
2019-01-09T03:59:24.920Z,3.01
2019-01-09T04:01:53.810Z,3.01
2019-01-09T04:04:23.011Z,3.04
2019-01-09T04:06:51.900Z,3.03
2019-01-09T04:09:20.797Z,2.98
2019-01-09T04:11:49.682Z,3.00
2019-01-09T04:14:18.573Z,2.93
2019-01-09T04:16:47.569Z,2.87
2019-01-09T04:19:16.162Z,2.86
2019-01-09T04:21:45.043Z,2.79
2019-01-09T04:24:14.035Z,2.74
2019-01-09T04:26:42.661Z,2.73
2019-01-09T04:29:11.505Z,2.69
2019-01-09T04:31:40.255Z,2.69
2019-01-09T04:34:09.491Z,2.64
2019-01-09T04:36:38.393Z,2.68
2019-01-09T04:39:07.796Z,2.72
2019-01-09T04:41:36.413Z,2.73
2019-01-09T04:44:05.428Z,2.76
2019-01-09T04:46:34.150Z,2.72
2019-01-09T04:49:03.059Z,2.72
2019-01-09T04:51:31.641Z,2.72
2019-01-09T04:54:00.945Z,2.65
2019-01-09T04:56:29.601Z,2.62
2019-01-09T04:58:58.519Z,2.63
2019-01-09T05:01:27.511Z,2.61
2019-01-09T05:03:57.120Z,2.58
2019-01-09T05:06:26.022Z,2.54
2019-01-09T05:08:55.004Z,2.48
2019-01-09T05:11:23.635Z,2.50
2019-01-09T05:13:52.589Z,2.46
2019-01-09T05:16:21.193Z,2.44
2019-01-09T05:18:50.159Z,2.45
2019-01-09T05:21:18.814Z,2.47
2019-01-09T05:23:47.736Z,2.46
2019-01-09T05:26:16.342Z,2.43
2019-01-09T05:28:44.994Z,2.41
2019-01-09T05:31:14.202Z,2.46
2019-01-09T05:33:43.504Z,2.44
2019-01-09T05:36:12.510Z,2.38
2019-01-09T05:38:41.510Z,2.39
2019-01-09T05:41:10.099Z,2.40
2019-01-09T05:43:38.745Z,2.36
2019-01-09T05:46:07.653Z,2.33
2019-01-09T05:48:36.665Z,2.35
2019-01-09T05:51:05.881Z,2.39
2019-01-09T05:53:34.839Z,2.36
2019-01-09T05:56:03.745Z,2.36
2019-01-09T05:58:32.723Z,2.35
2019-01-09T06:01:01.619Z,2.38
2019-01-09T06:03:30.488Z,2.40
2019-01-09T06:05:59.535Z,2.34
2019-01-09T06:08:28.505Z,2.33
2019-01-09T06:10:57.144Z,2.34
2019-01-09T06:13:26.082Z,2.29
2019-01-09T06:15:54.689Z,2.29
2019-01-09T06:18:23.964Z,2.31
2019-01-09T06:20:52.605Z,2.29
2019-01-09T06:23:21.541Z,2.28
2019-01-09T06:25:51.229Z,2.29
2019-01-09T06:28:20.451Z,2.22
2019-01-09T06:30:49.345Z,2.20
2019-01-09T06:33:17.951Z,2.18
2019-01-09T06:35:46.936Z,2.24
2019-01-09T06:38:15.544Z,2.20
2019-01-09T06:40:44.803Z,2.20
2019-01-09T06:43:13.445Z,2.21
2019-01-09T06:45:42.053Z,2.22
2019-01-09T06:48:10.963Z,2.22
2019-01-09T06:50:39.603Z,2.19
2019-01-09T06:53:08.572Z,2.05
2019-01-09T06:55:37.170Z,2.01
2019-01-09T06:58:06.528Z,2.01
2019-01-09T07:00:35.727Z,1.97
2019-01-09T07:03:04.623Z,1.94
2019-01-09T07:05:33.817Z,1.92
2019-01-09T07:08:03.132Z,1.85
2019-01-09T07:10:32.016Z,1.78
2019-01-09T07:13:01.205Z,1.75
2019-01-09T07:15:29.814Z,1.81
2019-01-09T07:17:58.411Z,1.80
2019-01-09T07:20:27.974Z,1.82
2019-01-09T07:22:57.177Z,1.86
2019-01-09T07:25:25.857Z,1.86
2019-01-09T07:27:54.750Z,1.88
2019-01-09T07:30:23.476Z,1.93
2019-01-09T07:32:52.086Z,1.97
2019-01-09T07:35:21.019Z,1.97
2019-01-09T07:37:50.013Z,1.95
2019-01-09T07:40:18.913Z,1.95
2019-01-09T07:42:48.120Z,1.87
2019-01-09T07:45:17.103Z,1.94
2019-01-09T07:47:45.982Z,1.91
2019-01-09T07:50:14.705Z,1.89
2019-01-09T07:52:43.308Z,1.92
2019-01-09T07:55:12.254Z,1.94
2019-01-09T07:57:40.907Z,1.95
2019-01-09T08:00:11.600Z,1.97
2019-01-09T08:02:40.531Z,1.95
2019-01-09T08:05:09.567Z,1.96
2019-01-09T08:07:38.458Z,1.92
2019-01-09T08:10:09.193Z,1.93
2019-01-09T08:12:37.921Z,2.00
2019-01-09T08:15:07.906Z,1.95
2019-01-09T08:17:36.798Z,1.97
2019-01-09T08:20:06.371Z,1.96
2019-01-09T08:22:35.066Z,1.96
2019-01-09T08:25:03.792Z,1.94
2019-01-09T08:27:32.434Z,1.91
2019-01-09T08:30:01.142Z,1.90
2019-01-09T08:32:30.335Z,1.90
2019-01-09T08:34:58.999Z,1.87
2019-01-09T08:37:27.615Z,1.83
2019-01-09T08:39:56.858Z,1.84
2019-01-09T08:42:25.979Z,2.08
2019-01-09T08:44:54.872Z,2.05
2019-01-09T08:47:24.091Z,2.05
2019-01-09T08:49:53.084Z,1.96
2019-01-09T08:52:21.707Z,1.92
2019-01-09T08:54:50.660Z,1.83
2019-01-09T08:57:19.654Z,1.86
2019-01-09T08:59:48.379Z,1.86
2019-01-09T09:02:17.001Z,1.90
2019-01-09T09:04:46.022Z,1.90
2019-01-09T09:07:14.892Z,1.97
2019-01-09T09:09:44.314Z,1.91
2019-01-09T09:12:12.932Z,1.88
2019-01-09T09:14:41.894Z,1.92
2019-01-09T09:17:10.551Z,1.89
2019-01-09T09:19:39.555Z,1.81
2019-01-09T09:22:08.463Z,1.88
2019-01-09T09:24:37.130Z,1.82
2019-01-09T09:27:06.150Z,1.90
2019-01-09T09:29:35.035Z,2.03
2019-01-09T09:32:04.031Z,1.95
2019-01-09T09:34:32.669Z,1.95
2019-01-09T09:37:01.918Z,2.02
2019-01-09T09:39:30.544Z,2.02
2019-01-09T09:41:59.195Z,1.99
2019-01-09T09:44:28.492Z,1.95
2019-01-09T09:46:57.379Z,1.90
2019-01-09T09:49:26.420Z,1.91
2019-01-09T09:51:55.031Z,1.96
2019-01-09T09:54:23.948Z,2.02
2019-01-09T09:56:52.941Z,1.99
2019-01-09T09:59:21.833Z,2.06
2019-01-09T10:01:50.559Z,2.01
2019-01-09T10:04:19.820Z,1.93
2019-01-09T10:06:49.427Z,1.95
2019-01-09T10:09:18.036Z,1.88
2019-01-09T10:11:46.664Z,1.85
2019-01-09T10:14:15.365Z,1.82
2019-01-09T10:16:43.978Z,1.88
2019-01-09T10:19:12.596Z,1.96
2019-01-09T10:21:41.240Z,1.91
2019-01-09T10:24:10.133Z,1.97
2019-01-09T10:26:39.024Z,1.94
2019-01-09T10:29:08.126Z,1.94
2019-01-09T10:31:37.009Z,1.87
2019-01-09T10:34:06.310Z,1.93
2019-01-09T10:36:34.955Z,1.96
2019-01-09T10:39:05.520Z,1.96
2019-01-09T10:41:34.401Z,2.01
2019-01-09T10:44:03.069Z,2.01
2019-01-09T10:46:31.998Z,2.01
2019-01-09T10:49:00.616Z,2.01
2019-01-09T10:51:29.573Z,1.99
2019-01-09T10:54:00.605Z,2.02
2019-01-09T10:56:28.955Z,1.99
2019-01-09T10:58:57.887Z,2.06
2019-01-09T11:01:27.186Z,2.07
2019-01-09T11:03:56.260Z,2.00
2019-01-09T11:06:24.876Z,2.11
2019-01-09T11:08:53.505Z,2.09
2019-01-09T11:11:22.163Z,2.12
2019-01-09T11:13:51.032Z,2.10
2019-01-09T11:16:19.886Z,2.10
2019-01-09T11:18:48.555Z,2.05
2019-01-09T11:21:17.809Z,2.02
2019-01-09T11:23:46.695Z,2.05
2019-01-09T11:26:15.600Z,2.08
2019-01-09T11:28:44.786Z,2.04
2019-01-09T11:31:13.409Z,2.11
2019-01-09T11:33:42.037Z,2.10
2019-01-09T11:36:11.359Z,2.10
2019-01-09T11:38:40.011Z,2.09
2019-01-09T11:41:08.723Z,2.12
2019-01-09T11:43:37.724Z,2.07
2019-01-09T11:46:06.456Z,2.00
2019-01-09T11:48:35.405Z,2.04
2019-01-09T11:51:04.399Z,2.02
2019-01-09T11:53:33.067Z,1.97
2019-01-09T11:56:01.989Z,1.97
2019-01-09T11:58:30.870Z,1.98
2019-01-09T12:00:59.862Z,1.98
2019-01-09T12:03:28.714Z,1.99
2019-01-09T12:05:57.641Z,1.97
2019-01-09T12:08:26.638Z,1.93
2019-01-09T12:10:55.757Z,1.93
2019-01-09T12:13:24.312Z,1.97
2019-01-09T12:15:54.439Z,1.88
2019-01-09T12:18:23.031Z,1.79
2019-01-09T12:20:51.665Z,1.80
2019-01-09T12:23:20.598Z,1.78
2019-01-09T12:25:49.798Z,1.78
2019-01-09T12:28:18.659Z,1.76
2019-01-09T12:30:47.582Z,1.82
2019-01-09T12:33:16.552Z,1.88
2019-01-09T12:35:45.154Z,1.92
2019-01-09T12:38:13.777Z,1.78
2019-01-09T12:40:42.734Z,1.72
2019-01-09T12:43:11.363Z,1.67
2019-01-09T12:45:39.996Z,1.66
2019-01-09T12:48:08.897Z,1.69
2019-01-09T12:50:37.636Z,1.66
2019-01-09T12:53:06.885Z,1.74
2019-01-09T12:55:35.776Z,1.69
2019-01-09T12:58:04.451Z,1.69
2019-01-09T13:00:33.134Z,1.66
2019-01-09T13:03:01.806Z,1.64
2019-01-09T13:05:31.034Z,1.64
2019-01-09T13:07:59.924Z,1.69
2019-01-09T13:10:28.665Z,1.72
2019-01-09T13:12:57.328Z,1.72
2019-01-09T13:15:26.291Z,1.58
2019-01-09T13:17:55.286Z,1.58
2019-01-09T13:20:23.972Z,1.57
2019-01-09T13:22:53.067Z,1.48
2019-01-09T13:25:22.066Z,1.50
2019-01-09T13:27:52.593Z,1.47
2019-01-09T13:30:22.894Z,1.48
2019-01-09T13:32:51.918Z,1.48
2019-01-09T13:35:21.312Z,1.47
2019-01-09T13:37:50.047Z,1.53
2019-01-09T13:40:20.123Z,1.56
2019-01-09T13:42:48.966Z,1.57
2019-01-09T13:45:19.847Z,1.54
2019-01-09T13:47:48.943Z,1.60
2019-01-09T13:50:18.051Z,1.55
2019-01-09T13:52:46.992Z,1.54
2019-01-09T13:55:16.233Z,1.60
2019-01-09T13:57:44.957Z,1.66
2019-01-09T14:00:16.152Z,1.62
2019-01-09T14:02:45.260Z,1.64
2019-01-09T14:05:14.006Z,1.66
2019-01-09T14:07:42.654Z,1.66
2019-01-09T14:10:14.353Z,1.66
2019-01-09T14:12:43.384Z,1.68
2019-01-09T14:15:14.870Z,1.68
2019-01-09T14:17:43.534Z,1.68
2019-01-09T14:20:12.619Z,1.67
2019-01-09T14:22:41.616Z,1.70
2019-01-09T14:25:11.071Z,1.78
2019-01-09T14:27:39.714Z,1.82
2019-01-09T14:30:12.028Z,1.80
2019-01-09T14:32:41.284Z,1.87
2019-01-09T14:35:10.574Z,1.88
2019-01-09T14:37:39.876Z,1.86
2019-01-09T14:40:10.106Z,1.86
2019-01-09T14:42:38.997Z,1.88
2019-01-09T14:45:08.712Z,1.87
2019-01-09T14:47:37.707Z,1.82
2019-01-09T14:50:09.561Z,1.75
2019-01-09T14:52:38.526Z,1.72
2019-01-09T14:55:07.694Z,1.80
2019-01-09T14:57:36.643Z,1.76
2019-01-09T15:00:09.298Z,1.75
2019-01-09T15:02:37.952Z,1.72
2019-01-09T15:05:07.080Z,1.73
2019-01-09T15:07:36.303Z,1.67
2019-01-09T15:10:07.346Z,1.62
2019-01-09T15:12:36.204Z,1.60
2019-01-09T15:15:07.379Z,1.50
2019-01-09T15:17:36.379Z,1.46
2019-01-09T15:20:06.491Z,1.43
2019-01-09T15:22:35.485Z,1.42
2019-01-09T15:25:05.404Z,1.38
2019-01-09T15:27:34.291Z,1.32
2019-01-09T15:30:03.388Z,1.31
2019-01-09T15:32:32.018Z,1.30
2019-01-09T15:35:00.623Z,1.32
2019-01-09T15:37:29.251Z,1.27
2019-01-09T15:40:05.446Z,1.23
2019-01-09T15:42:28.251Z,1.26
2019-01-09T15:44:58.069Z,1.26
2019-01-09T15:47:27.059Z,1.22
2019-01-09T15:49:56.315Z,1.17
2019-01-09T15:52:24.970Z,1.14
2019-01-09T15:54:54.247Z,1.15
2019-01-09T15:57:22.867Z,1.20
2019-01-09T15:59:51.821Z,1.18
2019-01-09T16:02:20.561Z,1.18
2019-01-09T16:04:49.708Z,1.16
2019-01-09T16:07:18.700Z,1.22
2019-01-09T16:09:47.338Z,1.17
2019-01-09T16:12:16.589Z,1.22
2019-01-09T16:14:45.212Z,1.18
2019-01-09T16:17:14.470Z,1.18
2019-01-09T16:19:43.672Z,1.20
2019-01-09T16:22:12.288Z,1.13
2019-01-09T16:24:40.958Z,1.14
2019-01-09T16:27:10.548Z,1.09
2019-01-09T16:29:39.439Z,1.16
2019-01-09T16:32:08.434Z,1.14
2019-01-09T16:34:37.638Z,1.13
2019-01-09T16:37:06.938Z,1.18
2019-01-09T16:39:35.633Z,1.24
2019-01-09T16:42:05.029Z,1.31
2019-01-09T16:44:34.230Z,1.27
2019-01-09T16:47:02.937Z,1.29
2019-01-09T16:49:31.601Z,1.37
2019-01-09T16:52:00.274Z,1.41
2019-01-09T16:54:28.909Z,1.47
2019-01-09T16:56:57.867Z,1.58
2019-01-09T16:59:26.855Z,1.55
2019-01-09T17:01:55.955Z,1.56
2019-01-09T17:04:24.656Z,1.56
2019-01-09T17:06:53.484Z,1.60
2019-01-09T17:09:22.569Z,1.61
2019-01-09T17:11:51.620Z,1.62
2019-01-09T17:14:20.510Z,1.60
2019-01-09T17:16:49.146Z,1.61
2019-01-09T17:19:17.857Z,1.66
2019-01-09T17:21:46.565Z,1.65
2019-01-09T17:24:15.457Z,1.58
2019-01-09T17:26:44.097Z,1.61
2019-01-09T17:29:12.743Z,1.67
2019-01-09T17:31:41.362Z,1.59
2019-01-09T17:34:10.714Z,1.59
2019-01-09T17:36:39.607Z,1.57
2019-01-09T17:39:08.916Z,1.61
2019-01-09T17:41:37.875Z,1.64
2019-01-09T17:44:06.603Z,1.61
2019-01-09T17:46:35.191Z,1.65
2019-01-09T17:49:03.888Z,1.64
2019-01-09T17:51:32.538Z,1.64
2019-01-09T17:54:02.255Z,1.66
2019-01-09T17:56:31.652Z,1.66
2019-01-09T17:59:00.548Z,1.63
2019-01-09T18:01:29.536Z,1.66
2019-01-09T18:03:58.436Z,1.78
2019-01-09T18:06:27.070Z,1.96
2019-01-09T18:08:56.067Z,1.86
2019-01-09T18:11:24.709Z,1.75
2019-01-09T18:13:53.602Z,1.81
2019-01-09T18:16:22.242Z,1.84
2019-01-09T18:18:51.013Z,1.73
2019-01-09T18:21:20.267Z,1.77
2019-01-09T18:23:49.262Z,1.80
2019-01-09T18:26:18.151Z,1.71
2019-01-09T18:28:46.779Z,1.71
2019-01-09T18:32:03.242Z,1.73
2019-01-09T18:34:57.663Z,1.78
2019-01-09T18:38:04.410Z,1.76
2019-01-09T18:40:59.418Z,1.73
2019-01-09T18:43:50.268Z,1.68
2019-01-09T18:46:56.079Z,1.74
2019-01-09T18:50:12.215Z,1.73
2019-01-09T18:53:12.196Z,1.71
2019-01-09T18:55:41.093Z,1.75
2019-01-09T18:58:09.978Z,1.79
2019-01-09T19:00:38.602Z,1.76
2019-01-09T19:03:07.556Z,1.75
2019-01-09T19:05:37.042Z,1.81
2019-01-09T19:08:06.117Z,1.69
2019-01-09T19:10:35.153Z,1.71
2019-01-09T19:13:03.754Z,1.71
2019-01-09T19:15:32.796Z,1.76
2019-01-09T19:18:01.436Z,1.71
2019-01-09T19:20:30.731Z,1.77
2019-01-09T19:22:59.598Z,1.73
2019-01-09T19:25:28.601Z,1.73
2019-01-09T19:27:57.588Z,1.65
2019-01-09T19:30:28.860Z,1.61
2019-01-09T19:32:57.661Z,1.63
2019-01-09T19:35:26.392Z,1.60
2019-01-09T19:37:55.537Z,1.64
2019-01-09T19:40:24.616Z,1.64
2019-01-09T19:42:53.815Z,1.59
2019-01-09T19:45:23.111Z,1.63
2019-01-09T19:47:51.895Z,1.61
2019-01-09T19:50:22.595Z,1.54
2019-01-09T19:52:52.243Z,1.53
2019-01-09T19:55:21.341Z,1.55
2019-01-09T19:57:50.407Z,1.60
2019-01-09T20:00:22.299Z,1.52
2019-01-09T20:02:51.392Z,1.59
2019-01-09T20:05:20.605Z,1.54
2019-01-09T20:07:52.863Z,1.47
2019-01-09T20:10:24.259Z,1.54
2019-01-09T20:12:53.083Z,1.56
2019-01-09T20:15:22.478Z,1.46
2019-01-09T20:17:51.121Z,1.46
2019-01-09T20:20:20.917Z,1.47
2019-01-09T20:22:51.271Z,1.47
2019-01-09T20:25:20.325Z,1.51
2019-01-09T20:27:49.513Z,1.53
2019-01-09T20:30:21.755Z,1.57
2019-01-09T20:32:50.991Z,1.62
2019-01-09T20:35:20.131Z,1.50
2019-01-09T20:37:52.675Z,1.58
2019-01-09T20:40:21.267Z,1.48
2019-01-09T20:42:49.921Z,1.50
2019-01-09T20:45:20.778Z,1.49
2019-01-09T20:47:49.807Z,1.52
2019-01-09T20:50:21.631Z,1.64
2019-01-09T20:52:50.826Z,1.51
2019-01-09T20:55:19.554Z,1.54
2019-01-09T20:57:48.726Z,1.51
2019-01-09T21:00:20.610Z,1.56
2019-01-09T21:02:49.423Z,1.56
2019-01-09T21:05:21.665Z,1.58
2019-01-09T21:07:50.950Z,1.60
2019-01-09T21:10:20.370Z,1.49
2019-01-09T21:12:49.037Z,1.57
2019-01-09T21:15:18.602Z,1.46
2019-01-09T21:17:47.524Z,1.51
2019-01-09T21:20:17.596Z,1.53
2019-01-09T21:22:46.342Z,1.46
2019-01-09T21:25:15.630Z,1.48
2019-01-09T21:27:44.315Z,1.45
2019-01-09T21:30:16.268Z,1.52
2019-01-09T21:32:45.580Z,1.53
2019-01-09T21:35:14.788Z,1.46
2019-01-09T21:37:43.593Z,1.50
2019-01-09T21:40:16.455Z,1.45
2019-01-09T21:42:45.491Z,1.51
2019-01-09T21:45:15.036Z,1.51
2019-01-09T21:47:43.752Z,1.53
2019-01-09T21:50:13.875Z,1.55
2019-01-09T21:52:43.125Z,1.54
2019-01-09T21:55:12.036Z,1.53
2019-01-09T21:57:40.658Z,1.66
2019-01-09T22:00:16.061Z,1.69
2019-01-09T22:02:44.768Z,1.68
2019-01-09T22:05:13.560Z,1.56
2019-01-09T22:07:42.551Z,1.62
2019-01-09T22:10:14.720Z,1.52
2019-01-09T22:12:44.025Z,1.56
2019-01-09T22:15:14.056Z,1.67
2019-01-09T22:17:43.280Z,1.60
2019-01-09T22:20:12.954Z,1.66
2019-01-09T22:22:42.451Z,1.54
2019-01-09T22:25:11.547Z,1.55
2019-01-09T22:27:40.596Z,1.53
2019-01-09T22:30:13.342Z,1.60
2019-01-09T22:32:42.317Z,1.53
2019-01-09T22:35:11.387Z,1.50
2019-01-09T22:37:40.340Z,1.47
2019-01-09T22:40:11.631Z,1.53
2019-01-09T22:42:40.949Z,1.50
2019-01-09T22:45:11.228Z,1.47
2019-01-09T22:47:39.914Z,1.45
2019-01-09T22:50:11.430Z,1.46
2019-01-09T22:52:40.138Z,1.48
2019-01-09T22:55:10.137Z,1.44
2019-01-09T22:57:39.192Z,1.51
2019-01-09T23:00:31.943Z,1.50
2019-01-09T23:03:01.278Z,1.55
2019-01-09T23:05:30.578Z,1.50
2019-01-09T23:07:59.473Z,1.46
2019-01-09T23:10:28.461Z,1.48
2019-01-09T23:12:57.113Z,1.53
2019-01-09T23:15:26.037Z,1.43
2019-01-09T23:17:55.007Z,1.54
2019-01-09T23:20:23.720Z,1.45
2019-01-09T23:22:53.022Z,1.43
2019-01-09T23:25:21.715Z,1.47
2019-01-09T23:27:51.109Z,1.46
2019-01-09T23:30:20.001Z,1.40
2019-01-09T23:32:48.684Z,1.45
2019-01-09T23:35:17.288Z,1.66
2019-01-09T23:37:46.673Z,1.53
2019-01-09T23:40:15.873Z,1.50
2019-01-09T23:42:44.865Z,1.55
2019-01-09T23:45:13.757Z,1.45
2019-01-09T23:47:42.479Z,1.48
2019-01-09T23:50:11.740Z,1.46
2019-01-09T23:52:40.947Z,1.45
2019-01-09T23:55:09.782Z,1.51
2019-01-09T23:57:38.434Z,1.51
